• Join FlightAware (Why Join?)
  • Login
  • US Flag 
11:03PM EDT


 

Airport Tracker/Info


-or-


 

Live Flight TrackerFlight Track Log ✈ TRS460 ✈ 30-Apr-2013 ✈ KGRR - KBWI

Flight Track Log - Related Links

Times and Time Zones

All times are in EDT time to prevent confusion due to time zone crossing. See the TRS460 flight status page for this flight to view local times or setup timezone preferences in your user account.

Time Position Orientation Groundspeed Altitude Reporting Facility
EDT Latitude Longitude Course Direction KTS MPH feet Rate Location/Type
06:01PM 42.8361 -85.4922 124° Southeast 170 196 2,700  Level Chicago Center
06:02PM 42.8058 -85.4244 121° Southeast 200 230 4,200 1,380 Climbing Chicago Center
06:03PM 42.7631 -85.3447 126° Southeast 246 283 5,600 1,560 Climbing Chicago Center
06:04PM 42.7172 -85.2556 125° Southeast 279 321 7,500 1,860 Climbing Chicago Center
06:05PM 42.6681 -85.1608 125° Southeast 300 345 9,500 1,560 Climbing Chicago Center
06:06PM 42.6211 -85.0219 115° Southeast 336 387 10,800 1,500 Climbing Chicago Center
06:07PM 42.5295 -84.7924 124° Southeast  Level FlightAware Approximate
06:07PM 42.5747 -84.8931 116° Southeast 377 434 12,700  Level Chicago Center
06:08PM 42.5264 -84.7586 116° Southeast 396 456 14,900 2,160 Climbing Chicago Center
06:10PM 42.4772 -84.6214 116° Southeast 404 465 17,200 2,280 Climbing Chicago Center
06:10PM 42.4308 -84.5022 118° Southeast 399 459 19,100 2,340 Climbing Cleveland Center
06:11PM 42.3814 -84.3614 115° Southeast 405 466 21,300 1,980 Climbing Cleveland Center
06:12PM 42.3258 -84.2147 117° Southeast 415 478 23,100 1,680 Climbing Cleveland Center
06:13PM 42.2719 -84.0628 116° Southeast 420 483 24,800 1,560 Climbing Cleveland Center
06:14PM 42.2161 -83.9139 117° Southeast 438 504 26,200 1,380 Climbing Cleveland Center
06:15PM 42.1578 -83.7597 117° Southeast 449 517 27,600 1,200 Climbing Cleveland Center
06:16PM 42.0994 -83.6000 116° Southeast 460 529 28,700 1,200 Climbing Cleveland Center
06:17PM 42.0428 -83.4575 118° Southeast 471 542 30,000 1,140 Climbing Cleveland Center
06:18PM 41.9692 -83.3117 124° Southeast 477 549 31,000 960 Climbing Cleveland Center
06:19PM 41.8853 -83.1547 126° Southeast 472 543 32,000 960 Climbing Cleveland Center
06:20PM 41.8111 -83.0125 125° Southeast 472 543 33,000 480 Climbing Cleveland Center
06:21PM 41.7369 -82.8733 126° Southeast 467 537 33,000  Level Cleveland Center
06:22PM 41.6625 -82.7317 125° Southeast 467 537 33,000  Level Cleveland Center
06:23PM 41.5981 -82.6100 125° Southeast 462 532 33,000  Level Cleveland Center
06:24PM 41.5153 -82.4578 126° Southeast 462 532 33,000  Level Cleveland Center
06:25PM 41.4403 -82.3169 125° Southeast 462 532 33,000  Level Cleveland Center
06:26PM 41.3650 -82.1794 126° Southeast 457 526 33,000  Level Cleveland Center
06:27PM 41.2686 -82.0667 139° Southeast 457 526 33,000  Level Cleveland Center
06:28PM 41.1636 -81.9622 143° Southeast 462 532 33,000  Level Cleveland Center
06:29PM 41.0586 -81.8581 143° Southeast 471 542 33,000  Level Cleveland Center
06:30PM 40.9533 -81.7544 143° Southeast 476 548 33,000  Level Cleveland Center
06:31PM 40.8522 -81.6481 141° Southeast 471 542 33,000  Level Cleveland Center
06:32PM 40.7469 -81.5422 143° Southeast 471 542 33,000  Level Cleveland Center
06:33PM 40.6456 -81.4397 142° Southeast 471 542 33,000  Level Cleveland Center
06:34PM 40.5442 -81.3317 141° Southeast 471 542 33,000  Level Cleveland Center
06:35PM 40.4658 -81.1997 128° Southeast 456 525 33,000  Level Cleveland Center
06:36PM 40.3933 -81.0603 124° Southeast 456 525 33,000  Level Cleveland Center
06:37PM 40.3211 -80.9208 124° Southeast 461 531 33,000  Level Cleveland Center
06:38PM 40.2525 -80.7817 123° Southeast 461 531 33,000 -180 Level Cleveland Center
06:39PM 40.1797 -80.6428 124° Southeast 466 536 32,700 -600 Descending Cleveland Center
06:40PM 40.1089 -80.5069 124° Southeast 466 536 31,800 -900 Descending Cleveland Center
06:41PM 40.0358 -80.3717 125° Southeast 466 536 31,000 -300 Descending Cleveland Center
06:43PM 39.8997 -80.1108 124° Southeast 472 543 31,000  Level Washington Center
06:44PM 39.8489 -79.9672 115° Southeast 444 511 31,000  Level Washington Center
06:45PM 39.8150 -79.8083 105° East 440 506 31,000  Level Washington Center
06:46PM 39.7828 -79.6553 105° East 440 506 31,000  Level Washington Center
06:47PM 39.7503 -79.4994 105° East 440 506 31,000 -840 Level Washington Center
06:48PM 39.7178 -79.3467 105° East 428 493 29,400 -2,160 Descending Washington Center
06:49PM 39.6869 -79.1942 105° East 428 493 26,700 -2,520 Descending Washington Center
06:50PM 39.6539 -79.0442 106° East 428 493 24,400 -1,740 Descending Washington Center
06:51PM 39.6186 -78.8889 106° East 435 501 23,300 -1,320 Descending Washington Center
06:52PM 39.5850 -78.7419 106° East 435 501 21,800 -1,560 Descending Washington Center
06:53PM 39.5553 -78.6008 105° East 422 486 20,300 -1,620 Descending Washington Center
06:54PM 39.5233 -78.4567 106° East 422 486 18,700 -1,380 Descending Washington Center
06:55PM 39.4911 -78.3183 107° East 411 473 17,600 -1,500 Descending Washington Center
06:56PM 39.4628 -78.1856 105° East 400 460 15,800 -1,320 Descending Washington Center
06:57PM 39.4322 -78.0528 107° East 389 448 15,000 -720 Descending Washington Center
06:58PM 39.4183 -77.9208 98° East 384 442 14,400 -660 Descending Washington Center
06:59PM 39.4228 -77.7919 87° East 365 420 13,700 -780 Descending Washington Center
07:00PM 39.4314 -77.6631 85° East 365 420 12,900 -780 Descending Washington Center
07:01PM 39.4356 -77.5264 88° East 360 414 12,200 -900 Descending Washington Center
07:02PM 39.4439 -77.4028 85° East 355 409 11,200 -720 Descending Washington Center
07:03PM 39.4500 -77.3167 85° East 299 344 11,000 -120 Descending Potomac TRACON
07:04PM 39.4667 -77.2167 78° East 300 345 11,000 -300 Level Potomac TRACON
07:05PM 39.4833 -77.1167 78° East 299 344 10,400 -900 Descending Potomac TRACON
07:06PM 39.5167 -77.0167 67° East 287 330 9,300 -900 Descending Potomac TRACON
07:07PM 39.5667 -76.9500 46° Northeast 246 283 8,700 -840 Descending Potomac TRACON
07:08PM 39.6000 -76.9000 49° Northeast 235 270 7,700 -1,020 Descending Potomac TRACON
07:09PM 39.6333 -76.8167 63° Northeast 233 268 6,700 -900 Descending Potomac TRACON
07:10PM 39.6000 -76.7667 131° Southeast 230 265 6,000 -720 Descending Potomac TRACON
07:11PM 39.5333 -76.7500 169° South 225 259 5,300 -540 Descending Potomac TRACON
07:12PM 39.4833 -76.7333 166° South 226 260 5,000 -180 Descending Potomac TRACON
07:13PM 39.4167 -76.7333 180° South 226 260 5,000 -240 Level Potomac TRACON
07:14PM 39.3667 -76.7833 218° Southwest 240 276 4,600 -540 Descending Potomac TRACON
07:15PM 39.3333 -76.8500 237° Southwest 222 255 4,000 -300 Descending Potomac TRACON
07:16PM 39.3000 -76.9333 243° Southwest 222 255 4,000  Level Potomac TRACON
07:17PM 39.2667 -77.0000 237° Southwest 223 257 4,000 -360 Level Potomac TRACON
07:18PM 39.2333 -77.0667 237° Southwest 209 241 3,300 -540 Descending Potomac TRACON
07:19PM 39.2000 -77.0500 159° South 155 178 3,000 -180 Descending Potomac TRACON
07:20PM 39.2000 -77.0000 90° East 146 168 3,000  Level Potomac TRACON